sensor_id;sensor_type;location;lat;lon;timestamp;temperature;humidity
24226;DHT22;51462;51.422;5.514;2023-03-25T00:01:28;10.00;99.90
24226;DHT22;51462;51.422;5.514;2023-03-25T00:04:00;10.00;99.90
24226;DHT22;51462;51.422;5.514;2023-03-25T00:06:26;10.00;99.90
24226;DHT22;51462;51.422;5.514;2023-03-25T00:08:53;10.30;99.90
24226;DHT22;51462;51.422;5.514;2023-03-25T00:11:19;10.20;99.90
24226;DHT22;51462;51.422;5.514;2023-03-25T00:13:44;10.40;99.90
24226;DHT22;51462;51.422;5.514;2023-03-25T00:16:10;10.20;99.90
24226;DHT22;51462;51.422;5.514;2023-03-25T00:18:36;10.10;99.90
24226;DHT22;51462;51.422;5.514;2023-03-25T00:21:03;10.40;99.90
24226;DHT22;51462;51.422;5.514;2023-03-25T00:23:30;10.40;99.90
24226;DHT22;51462;51.422;5.514;2023-03-25T00:25:56;10.30;99.90
24226;DHT22;51462;51.422;5.514;2023-03-25T00:28:29;10.30;99.90
24226;DHT22;51462;51.422;5.514;2023-03-25T00:31:03;10.10;99.90
24226;DHT22;51462;51.422;5.514;2023-03-25T00:33:29;10.10;99.90
24226;DHT22;51462;51.422;5.514;2023-03-25T00:35:56;10.20;99.90
24226;DHT22;51462;51.422;5.514;2023-03-25T00:38:27;10.10;99.90
24226;DHT22;51462;51.422;5.514;2023-03-25T00:41:11;10.10;99.90
24226;DHT22;51462;51.422;5.514;2023-03-25T00:43:36;10.00;99.90
24226;DHT22;51462;51.422;5.514;2023-03-25T00:46:02;10.10;99.90
24226;DHT22;51462;51.422;5.514;2023-03-25T00:48:28;10.00;99.90
24226;DHT22;51462;51.422;5.514;2023-03-25T00:50:54;9.90;99.90
24226;DHT22;51462;51.422;5.514;2023-03-25T00:53:19;9.90;99.90
24226;DHT22;51462;51.422;5.514;2023-03-25T00:55:45;10.10;99.90
24226;DHT22;51462;51.422;5.514;2023-03-25T00:58:10;10.20;99.90
24226;DHT22;51462;51.422;5.514;2023-03-25T01:00:36;10.10;99.90
24226;DHT22;51462;51.422;5.514;2023-03-25T01:03:01;10.10;99.90
24226;DHT22;51462;51.422;5.514;2023-03-25T01:05:28;10.30;99.90
24226;DHT22;51462;51.422;5.514;2023-03-25T01:07:54;9.90;99.90
24226;DHT22;51462;51.422;5.514;2023-03-25T01:10:20;10.30;99.90
24226;DHT22;51462;51.422;5.514;2023-03-25T01:12:47;10.10;99.90
24226;DHT22;51462;51.422;5.514;2023-03-25T01:15:12;10.10;99.90
24226;DHT22;51462;51.422;5.514;2023-03-25T01:17:38;10.00;99.90
24226;DHT22;51462;51.422;5.514;2023-03-25T01:20:04;10.10;99.90
24226;DHT22;51462;51.422;5.514;2023-03-25T01:22:35;10.00;99.90
24226;DHT22;51462;51.422;5.514;2023-03-25T01:25:01;9.90;99.90
24226;DHT22;51462;51.422;5.514;2023-03-25T01:27:27;9.90;99.90
24226;DHT22;51462;51.422;5.514;2023-03-25T01:29:52;9.80;99.90
24226;DHT22;51462;51.422;5.514;2023-03-25T01:32:19;9.90;99.90
24226;DHT22;51462;51.422;5.514;2023-03-25T01:34:45;9.90;99.90
24226;DHT22;51462;51.422;5.514;2023-03-25T01:37:11;9.80;99.90
24226;DHT22;51462;51.422;5.514;2023-03-25T01:39:36;9.90;99.90
24226;DHT22;51462;51.422;5.514;2023-03-25T01:42:02;9.60;99.90
24226;DHT22;51462;51.422;5.514;2023-03-25T01:46:54;9.90;99.90
24226;DHT22;51462;51.422;5.514;2023-03-25T01:49:25;9.90;99.90
24226;DHT22;51462;51.422;5.514;2023-03-25T01:51:57;9.90;99.90
24226;DHT22;51462;51.422;5.514;2023-03-25T01:54:24;9.60;99.90
24226;DHT22;51462;51.422;5.514;2023-03-25T01:56:51;9.90;99.90
24226;DHT22;51462;51.422;5.514;2023-03-25T01:59:20;10.00;99.90
24226;DHT22;51462;51.422;5.514;2023-03-25T02:01:49;9.90;99.90
24226;DHT22;51462;51.422;5.514;2023-03-25T02:04:20;9.80;99.90
24226;DHT22;51462;51.422;5.514;2023-03-25T02:06:52;9.80;99.90
24226;DHT22;51462;51.422;5.514;2023-03-25T02:09:20;9.60;99.90
24226;DHT22;51462;51.422;5.514;2023-03-25T02:11:47;9.80;99.90
24226;DHT22;51462;51.422;5.514;2023-03-25T02:14:15;9.80;99.90
24226;DHT22;51462;51.422;5.514;2023-03-25T02:30:27;9.90;99.90
24226;DHT22;51462;51.422;5.514;2023-03-25T02:39:06;10.00;99.90
24226;DHT22;51462;51.422;5.514;2023-03-25T02:42:08;9.80;99.90
24226;DHT22;51462;51.422;5.514;2023-03-25T02:44:46;9.80;99.90
24226;DHT22;51462;51.422;5.514;2023-03-25T02:47:18;9.70;99.90
24226;DHT22;51462;51.422;5.514;2023-03-25T02:49:51;9.60;99.90
24226;DHT22;51462;51.422;5.514;2023-03-25T02:52:28;9.60;99.90
24226;DHT22;51462;51.422;5.514;2023-03-25T02:54:57;9.80;99.90
24226;DHT22;51462;51.422;5.514;2023-03-25T02:57:27;9.50;99.90
24226;DHT22;51462;51.422;5.514;2023-03-25T02:59:54;9.80;99.90
24226;DHT22;51462;51.422;5.514;2023-03-25T03:02:24;9.90;99.90
24226;DHT22;51462;51.422;5.514;2023-03-25T03:04:53;9.70;99.90
24226;DHT22;51462;51.422;5.514;2023-03-25T03:07:26;9.50;99.90
24226;DHT22;51462;51.422;5.514;2023-03-25T03:10:03;9.60;99.90
24226;DHT22;51462;51.422;5.514;2023-03-25T03:12:43;9.50;99.90
24226;DHT22;51462;51.422;5.514;2023-03-25T03:15:19;9.70;99.90
24226;DHT22;51462;51.422;5.514;2023-03-25T03:23:09;9.80;99.90
24226;DHT22;51462;51.422;5.514;2023-03-25T03:25:47;9.70;99.90
24226;DHT22;51462;51.422;5.514;2023-03-25T03:30:57;9.80;99.90
24226;DHT22;51462;51.422;5.514;2023-03-25T03:36:33;9.50;99.90
24226;DHT22;51462;51.422;5.514;2023-03-25T03:39:07;9.60;99.90
24226;DHT22;51462;51.422;5.514;2023-03-25T03:41:37;9.80;99.90
24226;DHT22;51462;51.422;5.514;2023-03-25T03:44:07;9.50;99.90
24226;DHT22;51462;51.422;5.514;2023-03-25T03:46:44;10.00;99.90
24226;DHT22;51462;51.422;5.514;2023-03-25T03:49:17;9.80;99.90
24226;DHT22;51462;51.422;5.514;2023-03-25T03:51:55;9.90;99.90
24226;DHT22;51462;51.422;5.514;2023-03-25T03:54:28;9.90;99.90
24226;DHT22;51462;51.422;5.514;2023-03-25T03:57:14;9.60;99.90
24226;DHT22;51462;51.422;5.514;2023-03-25T04:02:50;9.60;99.90
24226;DHT22;51462;51.422;5.514;2023-03-25T04:05:20;9.90;99.90
24226;DHT22;51462;51.422;5.514;2023-03-25T04:08:08;9.50;99.90
24226;DHT22;51462;51.422;5.514;2023-03-25T04:10:42;9.60;99.90
24226;DHT22;51462;51.422;5.514;2023-03-25T04:13:12;9.50;99.90
24226;DHT22;51462;51.422;5.514;2023-03-25T04:15:39;9.40;99.90
24226;DHT22;51462;51.422;5.514;2023-03-25T04:18:05;9.40;99.90
24226;DHT22;51462;51.422;5.514;2023-03-25T04:20:32;9.30;99.90
24226;DHT22;51462;51.422;5.514;2023-03-25T04:23:04;9.30;99.90
24226;DHT22;51462;51.422;5.514;2023-03-25T04:25:30;9.30;99.90
24226;DHT22;51462;51.422;5.514;2023-03-25T04:27:59;9.30;99.90
24226;DHT22;51462;51.422;5.514;2023-03-25T04:30:26;9.40;99.90
24226;DHT22;51462;51.422;5.514;2023-03-25T04:32:52;9.60;99.90
24226;DHT22;51462;51.422;5.514;2023-03-25T04:35:18;9.60;99.90
24226;DHT22;51462;51.422;5.514;2023-03-25T04:37:45;9.50;99.90
24226;DHT22;51462;51.422;5.514;2023-03-25T04:40:16;9.50;99.90
24226;DHT22;51462;51.422;5.514;2023-03-25T04:42:44;9.30;99.90
24226;DHT22;51462;51.422;5.514;2023-03-25T04:45:11;9.20;99.90
24226;DHT22;51462;51.422;5.514;2023-03-25T04:47:41;9.50;99.90
24226;DHT22;51462;51.422;5.514;2023-03-25T04:50:17;9.50;99.90
24226;DHT22;51462;51.422;5.514;2023-03-25T04:52:43;9.30;99.90
24226;DHT22;51462;51.422;5.514;2023-03-25T04:55:11;9.40;99.90
24226;DHT22;51462;51.422;5.514;2023-03-25T04:57:46;9.40;99.90
24226;DHT22;51462;51.422;5.514;2023-03-25T05:00:17;9.10;99.90
24226;DHT22;51462;51.422;5.514;2023-03-25T05:02:45;9.20;99.90
24226;DHT22;51462;51.422;5.514;2023-03-25T05:05:16;9.20;99.90
24226;DHT22;51462;51.422;5.514;2023-03-25T05:07:47;9.10;99.90
24226;DHT22;51462;51.422;5.514;2023-03-25T05:10:15;9.20;99.90
24226;DHT22;51462;51.422;5.514;2023-03-25T05:12:41;9.40;99.90
24226;DHT22;51462;51.422;5.514;2023-03-25T05:15:08;9.50;99.90
24226;DHT22;51462;51.422;5.514;2023-03-25T05:17:34;9.50;99.90
24226;DHT22;51462;51.422;5.514;2023-03-25T05:20:00;9.40;99.90
24226;DHT22;51462;51.422;5.514;2023-03-25T05:22:25;9.50;99.90
24226;DHT22;51462;51.422;5.514;2023-03-25T05:24:51;9.40;99.90
24226;DHT22;51462;51.422;5.514;2023-03-25T05:27:18;9.40;99.90
24226;DHT22;51462;51.422;5.514;2023-03-25T05:29:45;9.30;99.90
24226;DHT22;51462;51.422;5.514;2023-03-25T05:32:10;9.20;99.90
24226;DHT22;51462;51.422;5.514;2023-03-25T05:34:38;9.20;99.90
24226;DHT22;51462;51.422;5.514;2023-03-25T05:37:04;9.20;99.90
24226;DHT22;51462;51.422;5.514;2023-03-25T05:39:30;9.40;99.90
24226;DHT22;51462;51.422;5.514;2023-03-25T05:41:55;9.20;99.90
24226;DHT22;51462;51.422;5.514;2023-03-25T05:44:27;9.60;99.90
24226;DHT22;51462;51.422;5.514;2023-03-25T05:46:53;9.40;99.90
24226;DHT22;51462;51.422;5.514;2023-03-25T05:49:18;9.40;99.90
24226;DHT22;51462;51.422;5.514;2023-03-25T05:51:44;9.50;99.90
24226;DHT22;51462;51.422;5.514;2023-03-25T05:54:09;9.40;99.90
24226;DHT22;51462;51.422;5.514;2023-03-25T05:56:38;9.30;99.90
24226;DHT22;51462;51.422;5.514;2023-03-25T05:59:03;9.30;99.90
24226;DHT22;51462;51.422;5.514;2023-03-25T06:01:29;9.40;99.90
24226;DHT22;51462;51.422;5.514;2023-03-25T06:03:57;9.30;99.90
24226;DHT22;51462;51.422;5.514;2023-03-25T06:06:26;9.30;99.90
24226;DHT22;51462;51.422;5.514;2023-03-25T06:08:51;9.60;99.90
24226;DHT22;51462;51.422;5.514;2023-03-25T06:11:18;9.50;99.90
24226;DHT22;51462;51.422;5.514;2023-03-25T06:13:45;9.50;99.90
24226;DHT22;51462;51.422;5.514;2023-03-25T06:16:18;9.30;99.90
24226;DHT22;51462;51.422;5.514;2023-03-25T06:18:48;9.40;99.90
24226;DHT22;51462;51.422;5.514;2023-03-25T06:21:21;9.20;99.90
24226;DHT22;51462;51.422;5.514;2023-03-25T06:23:48;9.40;99.90
24226;DHT22;51462;51.422;5.514;2023-03-25T06:26:15;9.20;99.90
24226;DHT22;51462;51.422;5.514;2023-03-25T06:28:41;9.40;99.90
24226;DHT22;51462;51.422;5.514;2023-03-25T06:31:12;9.30;99.90
24226;DHT22;51462;51.422;5.514;2023-03-25T06:33:38;9.30;99.90
24226;DHT22;51462;51.422;5.514;2023-03-25T06:36:03;9.40;99.90
24226;DHT22;51462;51.422;5.514;2023-03-25T06:38:29;9.20;99.90
24226;DHT22;51462;51.422;5.514;2023-03-25T06:40:58;9.30;99.90
24226;DHT22;51462;51.422;5.514;2023-03-25T06:43:23;9.40;99.90
24226;DHT22;51462;51.422;5.514;2023-03-25T06:45:50;9.40;99.90
24226;DHT22;51462;51.422;5.514;2023-03-25T06:48:16;9.60;99.90
24226;DHT22;51462;51.422;5.514;2023-03-25T06:50:41;9.50;99.90
24226;DHT22;51462;51.422;5.514;2023-03-25T06:53:07;9.30;99.90
24226;DHT22;51462;51.422;5.514;2023-03-25T06:55:33;9.40;99.90
24226;DHT22;51462;51.422;5.514;2023-03-25T06:57:58;9.60;99.90
24226;DHT22;51462;51.422;5.514;2023-03-25T07:00:24;9.50;99.90
24226;DHT22;51462;51.422;5.514;2023-03-25T07:02:51;9.60;99.90
24226;DHT22;51462;51.422;5.514;2023-03-25T07:05:17;9.50;99.90
24226;DHT22;51462;51.422;5.514;2023-03-25T07:07:42;9.50;99.90
24226;DHT22;51462;51.422;5.514;2023-03-25T07:10:13;9.50;99.90
24226;DHT22;51462;51.422;5.514;2023-03-25T07:12:39;9.60;99.90
24226;DHT22;51462;51.422;5.514;2023-03-25T07:15:06;9.50;99.90
24226;DHT22;51462;51.422;5.514;2023-03-25T07:17:32;9.60;99.90
24226;DHT22;51462;51.422;5.514;2023-03-25T07:19:57;9.70;99.90
24226;DHT22;51462;51.422;5.514;2023-03-25T07:22:23;9.70;99.90
24226;DHT22;51462;51.422;5.514;2023-03-25T07:24:48;9.80;99.90
24226;DHT22;51462;51.422;5.514;2023-03-25T07:27:15;9.90;99.90
24226;DHT22;51462;51.422;5.514;2023-03-25T07:29:41;9.80;99.90
24226;DHT22;51462;51.422;5.514;2023-03-25T07:32:06;9.80;99.90
24226;DHT22;51462;51.422;5.514;2023-03-25T07:34:32;10.00;99.90
24226;DHT22;51462;51.422;5.514;2023-03-25T07:36:58;9.90;99.90
24226;DHT22;51462;51.422;5.514;2023-03-25T07:39:24;9.90;99.90
24226;DHT22;51462;51.422;5.514;2023-03-25T07:41:53;9.80;99.90
24226;DHT22;51462;51.422;5.514;2023-03-25T07:44:19;9.70;99.90
24226;DHT22;51462;51.422;5.514;2023-03-25T07:46:46;9.60;99.90
24226;DHT22;51462;51.422;5.514;2023-03-25T07:49:12;9.80;99.90
24226;DHT22;51462;51.422;5.514;2023-03-25T07:51:37;9.70;99.90
24226;DHT22;51462;51.422;5.514;2023-03-25T07:54:03;9.60;99.90
24226;DHT22;51462;51.422;5.514;2023-03-25T07:56:29;9.60;99.90
24226;DHT22;51462;51.422;5.514;2023-03-25T07:58:54;9.50;99.90
24226;DHT22;51462;51.422;5.514;2023-03-25T08:01:20;9.60;99.90
24226;DHT22;51462;51.422;5.514;2023-03-25T08:03:46;9.60;99.90
24226;DHT22;51462;51.422;5.514;2023-03-25T08:06:11;9.90;99.90
24226;DHT22;51462;51.422;5.514;2023-03-25T08:08:37;9.80;99.90
24226;DHT22;51462;51.422;5.514;2023-03-25T08:11:03;9.80;99.90
24226;DHT22;51462;51.422;5.514;2023-03-25T08:13:29;9.80;99.90
24226;DHT22;51462;51.422;5.514;2023-03-25T08:15:55;9.80;99.90
24226;DHT22;51462;51.422;5.514;2023-03-25T08:18:21;9.60;99.90
24226;DHT22;51462;51.422;5.514;2023-03-25T08:20:50;9.50;99.90
24226;DHT22;51462;51.422;5.514;2023-03-25T08:23:17;9.60;99.90
24226;DHT22;51462;51.422;5.514;2023-03-25T08:25:45;9.50;99.90
24226;DHT22;51462;51.422;5.514;2023-03-25T08:28:17;9.60;99.90
24226;DHT22;51462;51.422;5.514;2023-03-25T08:30:47;9.50;99.90
24226;DHT22;51462;51.422;5.514;2023-03-25T08:33:14;9.60;99.90
24226;DHT22;51462;51.422;5.514;2023-03-25T08:35:41;9.40;99.90
24226;DHT22;51462;51.422;5.514;2023-03-25T08:38:07;9.30;99.90
24226;DHT22;51462;51.422;5.514;2023-03-25T08:40:34;9.40;99.90
24226;DHT22;51462;51.422;5.514;2023-03-25T08:43:03;9.40;99.90
24226;DHT22;51462;51.422;5.514;2023-03-25T08:45:29;9.40;99.90
24226;DHT22;51462;51.422;5.514;2023-03-25T08:47:57;9.40;99.90
24226;DHT22;51462;51.422;5.514;2023-03-25T08:50:22;9.40;99.90
24226;DHT22;51462;51.422;5.514;2023-03-25T08:52:48;9.30;99.90
24226;DHT22;51462;51.422;5.514;2023-03-25T08:55:14;9.30;99.90
24226;DHT22;51462;51.422;5.514;2023-03-25T08:57:41;9.50;99.90
24226;DHT22;51462;51.422;5.514;2023-03-25T09:00:07;9.50;99.90
24226;DHT22;51462;51.422;5.514;2023-03-25T09:02:37;9.50;99.90
24226;DHT22;51462;51.422;5.514;2023-03-25T09:05:03;9.50;99.90
24226;DHT22;51462;51.422;5.514;2023-03-25T09:07:28;9.30;99.90
24226;DHT22;51462;51.422;5.514;2023-03-25T09:09:55;9.30;99.90
24226;DHT22;51462;51.422;5.514;2023-03-25T09:12:20;9.10;99.90
24226;DHT22;51462;51.422;5.514;2023-03-25T09:14:46;9.10;99.90
24226;DHT22;51462;51.422;5.514;2023-03-25T09:17:12;9.10;99.90
24226;DHT22;51462;51.422;5.514;2023-03-25T09:19:37;9.00;99.90
24226;DHT22;51462;51.422;5.514;2023-03-25T09:22:04;9.10;99.90
24226;DHT22;51462;51.422;5.514;2023-03-25T09:24:30;9.40;99.90
24226;DHT22;51462;51.422;5.514;2023-03-25T09:26:59;9.20;99.90
24226;DHT22;51462;51.422;5.514;2023-03-25T09:29:26;9.40;99.90
24226;DHT22;51462;51.422;5.514;2023-03-25T09:31:51;9.40;99.90
24226;DHT22;51462;51.422;5.514;2023-03-25T09:34:17;9.50;99.90
24226;DHT22;51462;51.422;5.514;2023-03-25T09:36:43;9.30;99.90
24226;DHT22;51462;51.422;5.514;2023-03-25T09:39:10;9.30;99.90
24226;DHT22;51462;51.422;5.514;2023-03-25T09:41:53;9.20;99.90
24226;DHT22;51462;51.422;5.514;2023-03-25T09:44:27;9.40;99.90
24226;DHT22;51462;51.422;5.514;2023-03-25T09:46:55;9.40;99.90
24226;DHT22;51462;51.422;5.514;2023-03-25T09:49:25;9.40;99.90
24226;DHT22;51462;51.422;5.514;2023-03-25T09:51:56;9.10;99.90
24226;DHT22;51462;51.422;5.514;2023-03-25T09:54:26;9.00;99.90
24226;DHT22;51462;51.422;5.514;2023-03-25T09:56:56;8.90;99.90
24226;DHT22;51462;51.422;5.514;2023-03-25T10:02:40;8.90;99.90
24226;DHT22;51462;51.422;5.514;2023-03-25T10:08:17;9.20;99.90
24226;DHT22;51462;51.422;5.514;2023-03-25T10:10:51;9.40;99.90
24226;DHT22;51462;51.422;5.514;2023-03-25T10:13:50;9.60;99.90
24226;DHT22;51462;51.422;5.514;2023-03-25T10:19:09;9.80;99.90
24226;DHT22;51462;51.422;5.514;2023-03-25T10:27:31;10.40;99.90
24226;DHT22;51462;51.422;5.514;2023-03-25T10:35:03;10.70;99.90
24226;DHT22;51462;51.422;5.514;2023-03-25T10:37:33;10.70;99.90
24226;DHT22;51462;51.422;5.514;2023-03-25T10:40:13;10.80;99.90
24226;DHT22;51462;51.422;5.514;2023-03-25T10:42:54;10.90;99.90
24226;DHT22;51462;51.422;5.514;2023-03-25T10:45:23;10.90;99.90
24226;DHT22;51462;51.422;5.514;2023-03-25T10:47:50;11.20;99.90
24226;DHT22;51462;51.422;5.514;2023-03-25T10:50:19;11.30;99.90
24226;DHT22;51462;51.422;5.514;2023-03-25T10:52:47;11.30;99.90
24226;DHT22;51462;51.422;5.514;2023-03-25T10:55:23;11.50;99.90
24226;DHT22;51462;51.422;5.514;2023-03-25T10:57:50;11.50;99.90
24226;DHT22;51462;51.422;5.514;2023-03-25T11:00:17;11.50;99.90
24226;DHT22;51462;51.422;5.514;2023-03-25T11:02:44;11.70;99.90
24226;DHT22;51462;51.422;5.514;2023-03-25T11:05:12;11.70;99.90
24226;DHT22;51462;51.422;5.514;2023-03-25T11:07:55;11.80;99.90
24226;DHT22;51462;51.422;5.514;2023-03-25T11:10:30;11.70;99.90
24226;DHT22;51462;51.422;5.514;2023-03-25T11:13:00;11.80;99.90
24226;DHT22;51462;51.422;5.514;2023-03-25T11:15:35;11.80;99.90
24226;DHT22;51462;51.422;5.514;2023-03-25T11:21:04;11.80;99.90
24226;DHT22;51462;51.422;5.514;2023-03-25T11:23:36;11.70;99.90
24226;DHT22;51462;51.422;5.514;2023-03-25T11:26:19;12.00;99.90
24226;DHT22;51462;51.422;5.514;2023-03-25T11:28:47;12.00;99.90
24226;DHT22;51462;51.422;5.514;2023-03-25T11:31:17;12.00;99.90
24226;DHT22;51462;51.422;5.514;2023-03-25T11:33:45;12.00;99.90
24226;DHT22;51462;51.422;5.514;2023-03-25T11:38:45;12.10;99.90
24226;DHT22;51462;51.422;5.514;2023-03-25T11:41:12;12.20;99.90
24226;DHT22;51462;51.422;5.514;2023-03-25T11:43:38;12.10;99.90
24226;DHT22;51462;51.422;5.514;2023-03-25T11:46:12;12.10;99.90
24226;DHT22;51462;51.422;5.514;2023-03-25T11:48:40;12.10;99.90
24226;DHT22;51462;51.422;5.514;2023-03-25T11:51:28;12.10;99.90
24226;DHT22;51462;51.422;5.514;2023-03-25T11:54:07;12.20;99.90
24226;DHT22;51462;51.422;5.514;2023-03-25T11:56:43;12.10;99.90
24226;DHT22;51462;51.422;5.514;2023-03-25T11:59:34;12.00;99.90
24226;DHT22;51462;51.422;5.514;2023-03-25T12:07:50;12.00;99.90
24226;DHT22;51462;51.422;5.514;2023-03-25T12:10:16;12.20;99.90
24226;DHT22;51462;51.422;5.514;2023-03-25T12:24:17;11.80;99.90
24226;DHT22;51462;51.422;5.514;2023-03-25T12:29:40;11.10;99.90
24226;DHT22;51462;51.422;5.514;2023-03-25T12:32:16;10.80;99.90
24226;DHT22;51462;51.422;5.514;2023-03-25T12:35:02;10.40;99.90
24226;DHT22;51462;51.422;5.514;2023-03-25T12:37:41;10.10;99.90
24226;DHT22;51462;51.422;5.514;2023-03-25T12:45:41;9.00;99.90
24226;DHT22;51462;51.422;5.514;2023-03-25T12:48:27;9.40;99.90
24226;DHT22;51462;51.422;5.514;2023-03-25T12:51:21;10.20;99.90
24226;DHT22;51462;51.422;5.514;2023-03-25T12:54:20;10.60;99.90
24226;DHT22;51462;51.422;5.514;2023-03-25T12:57:13;10.90;99.90
24226;DHT22;51462;51.422;5.514;2023-03-25T13:05:52;11.30;99.90
24226;DHT22;51462;51.422;5.514;2023-03-25T13:08:45;11.10;99.90
24226;DHT22;51462;51.422;5.514;2023-03-25T13:11:30;10.80;99.90
24226;DHT22;51462;51.422;5.514;2023-03-25T13:14:03;10.90;99.90
24226;DHT22;51462;51.422;5.514;2023-03-25T13:16:31;10.70;99.90
24226;DHT22;51462;51.422;5.514;2023-03-25T13:19:00;10.60;99.90
24226;DHT22;51462;51.422;5.514;2023-03-25T13:21:28;10.70;99.90
24226;DHT22;51462;51.422;5.514;2023-03-25T13:24:16;10.50;99.90
24226;DHT22;51462;51.422;5.514;2023-03-25T13:26:44;10.40;99.90
24226;DHT22;51462;51.422;5.514;2023-03-25T13:29:30;10.10;99.90
24226;DHT22;51462;51.422;5.514;2023-03-25T13:32:01;10.40;99.90
24226;DHT22;51462;51.422;5.514;2023-03-25T13:34:29;10.60;99.90
24226;DHT22;51462;51.422;5.514;2023-03-25T13:48:28;11.00;99.90
24226;DHT22;51462;51.422;5.514;2023-03-25T13:50:59;10.90;99.90
24226;DHT22;51462;51.422;5.514;2023-03-25T13:56:48;10.30;99.90
24226;DHT22;51462;51.422;5.514;2023-03-25T13:59:50;9.90;99.90
24226;DHT22;51462;51.422;5.514;2023-03-25T14:11:17;10.00;99.90
24226;DHT22;51462;51.422;5.514;2023-03-25T14:13:53;10.10;99.90
24226;DHT22;51462;51.422;5.514;2023-03-25T14:16:27;10.00;99.90
24226;DHT22;51462;51.422;5.514;2023-03-25T14:18:59;10.00;99.90
24226;DHT22;51462;51.422;5.514;2023-03-25T14:24:32;11.80;99.90
24226;DHT22;51462;51.422;5.514;2023-03-25T14:27:05;12.60;99.90
24226;DHT22;51462;51.422;5.514;2023-03-25T14:29:34;13.40;99.90
24226;DHT22;51462;51.422;5.514;2023-03-25T14:32:48;13.70;99.90
24226;DHT22;51462;51.422;5.514;2023-03-25T14:34:49;14.00;99.90
24226;DHT22;51462;51.422;5.514;2023-03-25T14:39:50;11.90;99.90
24226;DHT22;51462;51.422;5.514;2023-03-25T14:42:40;11.70;99.90
24226;DHT22;51462;51.422;5.514;2023-03-25T14:45:33;11.50;99.90
24226;DHT22;51462;51.422;5.514;2023-03-25T14:48:05;11.20;99.90
24226;DHT22;51462;51.422;5.514;2023-03-25T14:50:35;10.90;99.90
24226;DHT22;51462;51.422;5.514;2023-03-25T14:53:03;10.90;99.90
24226;DHT22;51462;51.422;5.514;2023-03-25T14:55:39;11.00;99.90
24226;DHT22;51462;51.422;5.514;2023-03-25T14:58:15;11.30;99.90
24226;DHT22;51462;51.422;5.514;2023-03-25T15:00:48;12.20;99.90
24226;DHT22;51462;51.422;5.514;2023-03-25T15:03:16;13.20;99.90
24226;DHT22;51462;51.422;5.514;2023-03-25T15:05:44;13.70;99.90
24226;DHT22;51462;51.422;5.514;2023-03-25T15:08:24;13.80;99.90
24226;DHT22;51462;51.422;5.514;2023-03-25T15:11:16;13.70;99.90
24226;DHT22;51462;51.422;5.514;2023-03-25T15:13:47;13.00;99.90
24226;DHT22;51462;51.422;5.514;2023-03-25T15:19:03;12.60;99.90
24226;DHT22;51462;51.422;5.514;2023-03-25T15:21:32;13.10;99.90
24226;DHT22;51462;51.422;5.514;2023-03-25T15:24:07;13.40;99.90
24226;DHT22;51462;51.422;5.514;2023-03-25T15:26:42;13.50;99.90
24226;DHT22;51462;51.422;5.514;2023-03-25T15:40:33;13.60;99.90
24226;DHT22;51462;51.422;5.514;2023-03-25T15:46:25;13.90;99.90
24226;DHT22;51462;51.422;5.514;2023-03-25T15:51:38;13.60;99.90
24226;DHT22;51462;51.422;5.514;2023-03-25T16:00:26;13.20;99.90
24226;DHT22;51462;51.422;5.514;2023-03-25T16:03:19;13.20;99.90
24226;DHT22;51462;51.422;5.514;2023-03-25T16:05:52;13.30;99.90
24226;DHT22;51462;51.422;5.514;2023-03-25T16:08:39;13.30;99.90
24226;DHT22;51462;51.422;5.514;2023-03-25T16:11:14;13.10;99.90
24226;DHT22;51462;51.422;5.514;2023-03-25T16:13:40;13.30;99.90
24226;DHT22;51462;51.422;5.514;2023-03-25T16:16:07;13.70;99.90
24226;DHT22;51462;51.422;5.514;2023-03-25T16:18:34;13.60;99.90
24226;DHT22;51462;51.422;5.514;2023-03-25T16:21:01;13.20;99.90
24226;DHT22;51462;51.422;5.514;2023-03-25T16:23:29;13.00;99.90
24226;DHT22;51462;51.422;5.514;2023-03-25T16:25:55;13.00;99.90
24226;DHT22;51462;51.422;5.514;2023-03-25T16:28:39;13.00;99.90
24226;DHT22;51462;51.422;5.514;2023-03-25T16:31:26;12.90;99.90
24226;DHT22;51462;51.422;5.514;2023-03-25T16:33:58;12.90;99.90
24226;DHT22;51462;51.422;5.514;2023-03-25T16:36:24;12.80;99.90
24226;DHT22;51462;51.422;5.514;2023-03-25T16:38:50;12.80;99.90
24226;DHT22;51462;51.422;5.514;2023-03-25T16:41:16;12.70;99.90
24226;DHT22;51462;51.422;5.514;2023-03-25T16:43:42;12.80;99.90
24226;DHT22;51462;51.422;5.514;2023-03-25T16:46:09;12.60;99.90
24226;DHT22;51462;51.422;5.514;2023-03-25T16:48:39;12.60;99.90
24226;DHT22;51462;51.422;5.514;2023-03-25T16:51:24;12.60;99.90
24226;DHT22;51462;51.422;5.514;2023-03-25T16:53:54;12.60;99.90
24226;DHT22;51462;51.422;5.514;2023-03-25T16:56:35;12.60;99.90
24226;DHT22;51462;51.422;5.514;2023-03-25T16:59:05;12.60;99.90
24226;DHT22;51462;51.422;5.514;2023-03-25T17:01:37;12.60;99.90
24226;DHT22;51462;51.422;5.514;2023-03-25T17:04:18;12.40;99.90
24226;DHT22;51462;51.422;5.514;2023-03-25T17:06:46;12.40;99.90
24226;DHT22;51462;51.422;5.514;2023-03-25T17:09:20;12.50;99.90
24226;DHT22;51462;51.422;5.514;2023-03-25T17:11:51;12.40;99.90
24226;DHT22;51462;51.422;5.514;2023-03-25T17:14:19;12.20;99.90
24226;DHT22;51462;51.422;5.514;2023-03-25T17:16:47;12.20;99.90
24226;DHT22;51462;51.422;5.514;2023-03-25T17:19:14;12.10;99.90
24226;DHT22;51462;51.422;5.514;2023-03-25T17:24:24;12.10;99.90
24226;DHT22;51462;51.422;5.514;2023-03-25T17:26:57;12.10;99.90
24226;DHT22;51462;51.422;5.514;2023-03-25T17:29:28;12.10;99.90
24226;DHT22;51462;51.422;5.514;2023-03-25T17:31:56;12.00;99.90
24226;DHT22;51462;51.422;5.514;2023-03-25T17:34:22;12.10;99.90
24226;DHT22;51462;51.422;5.514;2023-03-25T17:36:55;12.00;99.90
24226;DHT22;51462;51.422;5.514;2023-03-25T17:39:32;12.00;99.90
24226;DHT22;51462;51.422;5.514;2023-03-25T17:44:39;12.00;99.90
24226;DHT22;51462;51.422;5.514;2023-03-25T17:47:15;12.00;99.90
24226;DHT22;51462;51.422;5.514;2023-03-25T17:49:41;11.90;99.90
24226;DHT22;51462;51.422;5.514;2023-03-25T17:52:07;11.90;99.90
24226;DHT22;51462;51.422;5.514;2023-03-25T17:54:33;11.90;99.90
24226;DHT22;51462;51.422;5.514;2023-03-25T17:56:59;11.80;99.90
24226;DHT22;51462;51.422;5.514;2023-03-25T17:59:25;11.80;99.90
24226;DHT22;51462;51.422;5.514;2023-03-25T18:01:51;11.80;99.90
24226;DHT22;51462;51.422;5.514;2023-03-25T18:04:18;11.80;99.90
24226;DHT22;51462;51.422;5.514;2023-03-25T18:06:45;11.70;99.90
24226;DHT22;51462;51.422;5.514;2023-03-25T18:09:21;11.70;99.90
24226;DHT22;51462;51.422;5.514;2023-03-25T18:11:53;11.70;99.90
24226;DHT22;51462;51.422;5.514;2023-03-25T18:14:21;11.70;99.90
24226;DHT22;51462;51.422;5.514;2023-03-25T18:16:46;11.60;99.90
24226;DHT22;51462;51.422;5.514;2023-03-25T18:19:18;11.60;99.90
24226;DHT22;51462;51.422;5.514;2023-03-25T18:21:44;11.70;99.90
24226;DHT22;51462;51.422;5.514;2023-03-25T18:24:10;11.50;99.90
24226;DHT22;51462;51.422;5.514;2023-03-25T18:26:36;11.50;99.90
24226;DHT22;51462;51.422;5.514;2023-03-25T18:29:04;11.40;99.90
24226;DHT22;51462;51.422;5.514;2023-03-25T18:31:33;11.40;99.90
24226;DHT22;51462;51.422;5.514;2023-03-25T18:33:59;11.40;99.90